createdAt,value
2022-12-13T00:00:25.731Z,27.83
2022-12-13T00:01:30.263Z,24.02
2022-12-13T00:02:31.993Z,26.50
2022-12-13T00:03:33.770Z,24.30
2022-12-13T00:04:35.736Z,24.63
2022-12-13T00:05:44.441Z,22.98
2022-12-13T00:06:46.271Z,26.92
2022-12-13T00:07:48.119Z,24.23
2022-12-13T00:08:50.051Z,24.77
2022-12-13T00:09:52.019Z,25.25
2022-12-13T00:11:01.571Z,24.38
2022-12-13T00:12:03.596Z,22.67
2022-12-13T00:13:05.704Z,23.50
2022-12-13T00:14:07.697Z,26.38
2022-12-13T00:15:10.001Z,23.35
2022-12-13T00:16:14.544Z,25.35
2022-12-13T00:17:16.378Z,24.13
2022-12-13T00:18:18.222Z,24.58
2022-12-13T00:19:20.440Z,24.63
2022-12-13T00:20:22.142Z,19.85
2022-12-13T00:21:26.685Z,26.88
2022-12-13T00:22:28.471Z,23.50
2022-12-13T00:23:30.231Z,25.60
2022-12-13T00:24:31.968Z,24.77
2022-12-13T00:25:34.383Z,25.10
2022-12-13T00:26:36.706Z,23.15
2022-12-13T00:27:38.660Z,25.80
2022-12-13T00:28:40.857Z,24.98
2022-12-13T00:29:42.565Z,25.48
2022-12-13T00:30:44.548Z,23.85
2022-12-13T00:31:59.957Z,23.60
2022-12-13T00:33:02.532Z,23.23
2022-12-13T00:34:05.306Z,23.30
2022-12-13T00:35:07.440Z,23.50
2022-12-13T00:36:10.021Z,25.58
2022-12-13T00:37:11.767Z,24.98
2022-12-13T00:38:13.483Z,23.23
2022-12-13T00:39:16.529Z,24.48
2022-12-13T00:40:18.507Z,23.70
2022-12-13T00:41:20.728Z,24.85
2022-12-13T00:42:22.743Z,22.45
2022-12-13T00:43:24.487Z,23.95
2022-12-13T00:44:26.678Z,22.83
2022-12-13T00:45:29.132Z,23.05
2022-12-13T00:46:31.026Z,26.42
2022-12-13T00:47:32.962Z,21.83
2022-12-13T00:48:34.644Z,22.63
2022-12-13T00:49:36.382Z,25.55
2022-12-13T00:50:38.731Z,22.40
2022-12-13T00:51:40.547Z,24.20
2022-12-13T00:52:42.406Z,26.00
2022-12-13T00:53:44.635Z,26.85
2022-12-13T00:54:46.443Z,24.85
2022-12-13T00:55:48.332Z,25.50
2022-12-13T00:56:51.526Z,23.67
2022-12-13T00:57:53.674Z,23.42
2022-12-13T00:58:55.938Z,26.08
2022-12-13T00:59:57.880Z,26.05
2022-12-13T01:01:04.906Z,24.30
2022-12-13T01:02:07.042Z,27.17
2022-12-13T01:03:20.591Z,20.98
2022-12-13T01:04:22.663Z,23.90
2022-12-13T01:06:03.811Z,26.25
2022-12-13T01:06:50.072Z,22.15
2022-12-13T01:07:51.906Z,23.38
2022-12-13T01:08:53.859Z,24.48
2022-12-13T01:09:59.774Z,23.23
2022-12-13T01:11:01.515Z,22.70
2022-12-13T01:12:05.565Z,22.80
2022-12-13T01:13:07.486Z,21.92
2022-12-13T01:14:09.304Z,21.73
2022-12-13T01:15:11.614Z,23.33
2022-12-13T01:16:14.417Z,20.48
2022-12-13T01:17:16.186Z,24.58
2022-12-13T01:18:18.256Z,20.52
2022-12-13T01:19:20.119Z,24.20
2022-12-13T01:20:21.892Z,23.42
2022-12-13T01:21:24.089Z,22.17
2022-12-13T01:22:25.940Z,25.27
2022-12-13T01:23:30.477Z,19.85
2022-12-13T01:24:32.818Z,25.95
2022-12-13T01:25:37.699Z,24.73
2022-12-13T01:26:39.538Z,22.40
2022-12-13T01:27:41.291Z,25.95
2022-12-13T01:28:43.431Z,25.00
2022-12-13T01:29:45.318Z,22.95
2022-12-13T01:31:11.210Z,21.27
2022-12-13T01:32:13.328Z,24.52
2022-12-13T01:33:15.087Z,22.27
2022-12-13T01:34:21.063Z,23.00
2022-12-13T01:35:27.995Z,21.58
2022-12-13T01:36:29.768Z,20.38
2022-12-13T01:37:31.512Z,25.52
2022-12-13T01:38:39.507Z,21.00
2022-12-13T01:39:41.380Z,24.48
2022-12-13T01:40:45.232Z,22.08
2022-12-13T01:41:50.270Z,20.40
2022-12-13T01:42:52.201Z,23.05
2022-12-13T01:43:56.600Z,22.95
2022-12-13T01:45:02.881Z,22.70
2022-12-13T01:46:05.121Z,22.48
2022-12-13T01:47:06.958Z,24.30
2022-12-13T01:48:19.410Z,22.92
2022-12-13T01:49:21.159Z,22.65
2022-12-13T01:50:27.980Z,24.08
2022-12-13T01:51:49.221Z,23.90
2022-12-13T01:52:52.676Z,24.65
2022-12-13T01:53:59.598Z,23.98
2022-12-13T01:55:04.359Z,22.98
2022-12-13T01:56:20.447Z,22.65
2022-12-13T01:57:23.748Z,24.85
2022-12-13T01:58:25.902Z,21.35
2022-12-13T01:59:29.659Z,24.00
2022-12-13T02:00:33.985Z,23.35
2022-12-13T02:01:35.939Z,20.30
2022-12-13T02:02:38.780Z,25.63
2022-12-13T02:03:40.527Z,21.73
2022-12-13T02:05:07.050Z,25.00
2022-12-13T02:06:17.662Z,23.35
2022-12-13T02:07:23.786Z,24.50
2022-12-13T02:08:26.022Z,23.35
2022-12-13T02:09:28.579Z,23.48
2022-12-13T02:10:32.341Z,25.75
2022-12-13T02:11:40.871Z,22.52
2022-12-13T02:12:43.066Z,24.00
2022-12-13T02:13:44.864Z,24.33
2022-12-13T02:14:47.007Z,23.13
2022-12-13T02:16:25.761Z,24.88
2022-12-13T02:17:52.507Z,22.92
2022-12-13T02:19:32.303Z,20.80
2022-12-13T02:20:42.440Z,22.23
2022-12-13T02:22:18.074Z,23.75
2022-12-13T02:23:25.820Z,24.92
2022-12-13T02:24:27.563Z,24.63
2022-12-13T02:25:58.540Z,24.75
2022-12-13T02:27:19.520Z,22.73
2022-12-13T02:28:50.703Z,22.63
2022-12-13T02:30:10.924Z,23.27
2022-12-13T02:32:54.161Z,22.42
2022-12-13T02:34:07.273Z,22.45
2022-12-13T02:35:17.687Z,25.70
2022-12-13T02:36:36.207Z,27.55
2022-12-13T02:37:54.186Z,26.98
2022-12-13T02:39:12.878Z,26.17
2022-12-13T02:40:41.974Z,25.67
2022-12-13T02:42:35.839Z,26.80
2022-12-13T02:44:21.958Z,24.20
2022-12-13T02:45:30.786Z,21.77
2022-12-13T02:46:38.203Z,23.67
2022-12-13T02:47:44.322Z,24.50
2022-12-13T02:48:49.405Z,26.48
2022-12-13T02:50:00.581Z,24.33
2022-12-13T02:52:08.913Z,22.00
2022-12-13T02:53:12.443Z,26.42
2022-12-13T02:54:15.474Z,23.85
2022-12-13T02:55:18.025Z,21.30
2022-12-13T02:56:20.162Z,26.17
2022-12-13T02:57:33.900Z,22.20
2022-12-13T02:58:40.360Z,22.77
2022-12-13T02:59:42.063Z,22.98
2022-12-13T03:00:54.168Z,24.58
2022-12-13T03:02:14.685Z,27.17
2022-12-13T03:03:52.998Z,21.83
2022-12-13T03:05:22.927Z,25.30
2022-12-13T03:06:34.811Z,22.70
2022-12-13T03:07:54.749Z,21.40
2022-12-13T03:09:08.649Z,22.98
2022-12-13T03:10:20.099Z,25.13
2022-12-13T03:11:25.155Z,22.50
2022-12-13T03:13:31.497Z,22.90
2022-12-13T03:14:35.152Z,20.08
2022-12-13T03:15:47.818Z,24.60
2022-12-13T03:16:52.774Z,28.05
2022-12-13T03:17:59.736Z,26.48
2022-12-13T03:19:04.048Z,22.00
2022-12-13T03:20:22.289Z,21.27
2022-12-13T03:21:25.727Z,21.42
2022-12-13T03:22:27.511Z,20.35
2022-12-13T03:23:29.891Z,20.13
2022-12-13T03:24:31.657Z,22.20
2022-12-13T03:25:33.479Z,19.40
2022-12-13T03:26:38.580Z,22.35
2022-12-13T03:27:40.819Z,21.08
2022-12-13T03:28:42.554Z,19.83
2022-12-13T03:29:44.423Z,19.60
2022-12-13T03:30:46.483Z,21.90
2022-12-13T03:31:48.614Z,19.25
2022-12-13T03:32:50.364Z,19.13
2022-12-13T03:33:52.068Z,20.60
2022-12-13T03:35:00.523Z,19.75
2022-12-13T03:36:17.164Z,21.88
2022-12-13T03:37:18.932Z,19.55
2022-12-13T03:38:22.670Z,22.35
2022-12-13T03:39:25.029Z,18.05
2022-12-13T03:40:27.332Z,18.48
2022-12-13T03:41:32.239Z,19.83
2022-12-13T03:42:34.048Z,19.45
2022-12-13T03:43:35.989Z,18.45
2022-12-13T03:44:38.007Z,17.40
2022-12-13T03:45:39.775Z,18.60
2022-12-13T03:46:41.879Z,20.42
2022-12-13T03:47:43.654Z,17.85
2022-12-13T03:48:45.378Z,19.88
2022-12-13T03:49:47.088Z,19.73
2022-12-13T03:50:56.867Z,19.83
2022-12-13T03:51:58.725Z,17.27
2022-12-13T03:53:03.967Z,17.27
2022-12-13T03:54:05.809Z,16.83
2022-12-13T03:55:07.919Z,18.95
2022-12-13T03:56:09.659Z,17.40
2022-12-13T03:57:11.373Z,17.67
2022-12-13T03:58:13.217Z,20.00
2022-12-13T03:59:14.987Z,17.02
2022-12-13T04:00:16.986Z,16.70
2022-12-13T04:01:19.046Z,16.60
2022-12-13T04:02:30.544Z,17.25
2022-12-13T04:03:33.784Z,16.02
2022-12-13T04:04:35.675Z,14.15
2022-12-13T04:05:37.585Z,14.95
2022-12-13T04:06:39.584Z,15.27
2022-12-13T04:07:48.476Z,16.88
2022-12-13T04:08:51.646Z,14.00
2022-12-13T04:09:53.500Z,10.93
2022-12-13T04:10:55.234Z,10.90
2022-12-13T04:12:15.457Z,12.93
2022-12-13T04:13:35.159Z,15.25
2022-12-13T04:14:36.887Z,14.68
2022-12-13T04:15:39.090Z,12.88
2022-12-13T04:16:40.760Z,12.55
2022-12-13T04:17:42.501Z,11.50
2022-12-13T04:18:44.220Z,12.65
2022-12-13T04:19:46.303Z,12.15
2022-12-13T04:20:48.210Z,10.35
2022-12-13T04:21:49.924Z,10.85
2022-12-13T04:22:51.679Z,12.73
2022-12-13T04:23:54.099Z,12.77
2022-12-13T04:24:55.828Z,9.23
2022-12-13T04:25:59.937Z,12.48
2022-12-13T04:27:01.977Z,12.88
2022-12-13T04:28:03.803Z,11.48
2022-12-13T04:29:05.534Z,9.88
2022-12-13T04:30:08.288Z,14.38
2022-12-13T04:31:10.231Z,8.90
2022-12-13T04:32:27.149Z,10.88
2022-12-13T04:33:29.328Z,11.05
2022-12-13T04:34:36.933Z,13.77
2022-12-13T04:35:39.565Z,10.45
2022-12-13T04:36:41.911Z,11.07
2022-12-13T04:37:43.820Z,9.70
2022-12-13T04:38:46.667Z,8.32
2022-12-13T04:39:48.464Z,8.77
2022-12-13T04:40:50.372Z,8.88
2022-12-13T04:41:52.986Z,8.18
2022-12-13T04:42:55.162Z,9.02
2022-12-13T04:43:57.040Z,8.30
2022-12-13T04:45:02.023Z,11.15
2022-12-13T04:46:03.813Z,10.88
2022-12-13T04:47:05.766Z,10.68
2022-12-13T04:48:07.841Z,8.90
2022-12-13T04:49:09.651Z,10.45
2022-12-13T04:50:11.783Z,11.55
2022-12-13T04:51:13.849Z,8.82
2022-12-13T04:52:22.640Z,9.02
2022-12-13T04:53:24.545Z,10.20
2022-12-13T04:54:26.284Z,9.23
2022-12-13T04:55:28.251Z,8.45
2022-12-13T04:56:30.045Z,9.88
2022-12-13T04:57:31.931Z,9.57
2022-12-13T04:58:34.047Z,8.05
2022-12-13T04:59:37.074Z,8.70
2022-12-13T05:00:41.164Z,8.98
2022-12-13T05:01:46.454Z,8.95
2022-12-13T05:02:48.265Z,9.80
2022-12-13T05:03:51.962Z,9.10
2022-12-13T05:04:54.537Z,9.10
2022-12-13T05:05:56.879Z,7.70
2022-12-13T05:06:58.661Z,8.15
2022-12-13T05:08:00.469Z,9.73
2022-12-13T05:09:02.414Z,8.23
2022-12-13T05:10:33.879Z,11.45
2022-12-13T05:11:37.683Z,8.00
2022-12-13T05:12:47.405Z,7.32
2022-12-13T05:13:49.106Z,7.72
2022-12-13T05:14:52.009Z,6.30
2022-12-13T05:16:04.329Z,7.38
2022-12-13T05:17:06.368Z,7.05
2022-12-13T05:18:09.520Z,6.85
2022-12-13T05:19:12.196Z,8.35
2022-12-13T05:20:14.139Z,7.88
2022-12-13T05:21:15.958Z,9.15
2022-12-13T05:22:20.660Z,6.43
2022-12-13T05:23:24.886Z,7.57
2022-12-13T05:24:26.844Z,6.22
2022-12-13T05:25:28.561Z,7.30
2022-12-13T05:26:30.413Z,8.25
2022-12-13T05:27:32.349Z,8.27
2022-12-13T05:28:34.660Z,7.10
2022-12-13T05:29:36.419Z,9.95
2022-12-13T05:30:42.154Z,7.90
2022-12-13T05:31:43.938Z,9.15
2022-12-13T05:32:45.923Z,6.82
2022-12-13T05:33:47.792Z,10.25
2022-12-13T05:34:50.074Z,8.65
2022-12-13T05:35:55.083Z,11.48
2022-12-13T05:37:01.540Z,7.38
2022-12-13T05:38:04.048Z,7.97
2022-12-13T05:39:06.150Z,8.13
2022-12-13T05:40:30.427Z,11.07
2022-12-13T05:41:35.619Z,7.88
2022-12-13T05:42:38.851Z,9.20
2022-12-13T05:43:42.790Z,5.55
2022-12-13T05:44:45.466Z,8.70
2022-12-13T05:45:47.264Z,8.40
2022-12-13T05:46:49.026Z,6.63
2022-12-13T05:47:50.998Z,8.63
2022-12-13T05:48:53.012Z,11.18
2022-12-13T05:49:54.751Z,10.02
2022-12-13T05:51:09.822Z,12.05
2022-12-13T05:52:20.245Z,12.23
2022-12-13T05:53:30.326Z,10.18
2022-12-13T05:54:33.067Z,8.75
2022-12-13T05:55:34.962Z,8.43
2022-12-13T05:56:36.812Z,9.20
2022-12-13T05:57:39.056Z,11.10
2022-12-13T05:58:41.334Z,7.93
2022-12-13T05:59:43.060Z,8.68
2022-12-13T06:00:44.788Z,8.00
2022-12-13T06:01:46.735Z,8.40
2022-12-13T06:02:48.996Z,10.20
2022-12-13T06:03:51.313Z,11.32
2022-12-13T06:04:53.143Z,9.63
2022-12-13T06:05:55.498Z,9.05
2022-12-13T06:06:57.381Z,8.85
2022-12-13T06:07:59.381Z,9.30
2022-12-13T06:09:01.504Z,11.05
2022-12-13T06:10:09.553Z,10.27
2022-12-13T06:11:12.914Z,7.88
2022-12-13T06:12:36.736Z,10.20
2022-12-13T06:13:50.051Z,7.60
2022-12-13T06:14:51.915Z,10.85
2022-12-13T06:16:01.555Z,7.95
2022-12-13T06:17:04.061Z,7.60
2022-12-13T06:18:06.146Z,4.07
2022-12-13T06:19:08.512Z,10.23
2022-12-13T06:20:23.987Z,10.68
2022-12-13T06:21:26.575Z,12.75
2022-12-13T06:22:28.354Z,10.27
2022-12-13T06:23:31.513Z,8.35
2022-12-13T06:24:33.544Z,12.75
2022-12-13T06:25:37.498Z,9.82
2022-12-13T06:26:39.170Z,8.20
2022-12-13T06:27:40.889Z,10.50
2022-12-13T06:28:42.597Z,13.90
2022-12-13T06:29:44.291Z,10.13
2022-12-13T06:30:46.171Z,11.25
2022-12-13T06:31:48.097Z,7.28
2022-12-13T06:32:50.195Z,9.93
2022-12-13T06:33:51.926Z,9.13
2022-12-13T06:34:53.630Z,8.65
2022-12-13T06:35:58.900Z,9.70
2022-12-13T06:37:02.510Z,7.97
2022-12-13T06:38:04.594Z,13.35
2022-12-13T06:39:15.648Z,9.73
2022-12-13T06:40:22.838Z,9.63
2022-12-13T06:41:30.538Z,8.75
2022-12-13T06:42:33.862Z,9.13
2022-12-13T06:43:36.080Z,10.48
2022-12-13T06:44:37.906Z,8.90
2022-12-13T06:45:40.947Z,10.75
2022-12-13T06:46:43.115Z,10.27
2022-12-13T06:47:44.853Z,12.00
2022-12-13T06:48:46.987Z,8.93
2022-12-13T06:49:49.097Z,10.52
2022-12-13T06:50:51.012Z,10.38
2022-12-13T06:51:54.105Z,8.88
2022-12-13T06:52:55.831Z,10.32
2022-12-13T06:53:57.702Z,10.57
2022-12-13T06:55:02.913Z,12.40
2022-12-13T06:56:10.460Z,8.52
2022-12-13T06:57:14.089Z,7.18
2022-12-13T06:58:15.821Z,8.00
2022-12-13T06:59:18.009Z,7.07
2022-12-13T07:00:22.158Z,8.35
2022-12-13T07:01:25.097Z,9.18
2022-12-13T07:02:27.190Z,9.07
2022-12-13T07:03:29.936Z,8.50
2022-12-13T07:04:32.651Z,8.98
2022-12-13T07:05:35.166Z,10.50
2022-12-13T07:06:37.162Z,9.88
2022-12-13T07:07:39.008Z,10.55
2022-12-13T07:08:47.639Z,11.18
2022-12-13T07:09:49.395Z,12.55
2022-12-13T07:10:54.107Z,9.38
2022-12-13T07:11:56.013Z,11.15
2022-12-13T07:12:57.923Z,11.38
2022-12-13T07:14:01.168Z,14.02
2022-12-13T07:15:02.943Z,16.02
2022-12-13T07:16:05.150Z,12.57
2022-12-13T07:17:07.025Z,13.48
2022-12-13T07:18:08.727Z,9.65
2022-12-13T07:19:24.093Z,11.25
2022-12-13T07:20:26.240Z,10.90
2022-12-13T07:21:29.141Z,12.80
2022-12-13T07:22:34.498Z,12.63
2022-12-13T07:23:38.338Z,9.68
2022-12-13T07:24:40.051Z,9.65
2022-12-13T07:25:42.107Z,10.43
2022-12-13T07:26:43.985Z,9.25
2022-12-13T07:27:45.838Z,12.02
2022-12-13T07:28:51.509Z,13.75
2022-12-13T07:29:58.082Z,12.88
2022-12-13T07:31:04.898Z,12.80
2022-12-13T07:32:08.121Z,11.07
2022-12-13T07:33:10.631Z,17.45
2022-12-13T07:34:15.575Z,13.00
2022-12-13T07:35:17.638Z,12.70
2022-12-13T07:36:23.614Z,9.40
2022-12-13T07:37:30.027Z,10.20
2022-12-13T07:38:36.367Z,11.10
2022-12-13T07:39:38.143Z,12.00
2022-12-13T07:40:40.580Z,10.75
2022-12-13T07:41:43.504Z,9.93
2022-12-13T07:42:55.438Z,11.00
2022-12-13T07:43:57.386Z,11.27
2022-12-13T07:44:59.159Z,12.70
2022-12-13T07:46:03.855Z,9.13
2022-12-13T07:47:05.657Z,12.75
2022-12-13T07:48:08.567Z,10.52
2022-12-13T07:49:12.016Z,13.88
2022-12-13T07:50:24.408Z,12.80
2022-12-13T07:51:27.477Z,9.50
2022-12-13T07:52:29.494Z,12.70
2022-12-13T07:53:33.487Z,11.00
2022-12-13T07:54:35.628Z,10.32
2022-12-13T07:55:38.170Z,9.40
2022-12-13T07:56:40.086Z,12.48
2022-12-13T07:57:41.839Z,10.10
2022-12-13T07:58:44.226Z,11.55
2022-12-13T07:59:46.077Z,10.63
2022-12-13T08:00:47.968Z,8.13
2022-12-13T08:01:49.821Z,10.60
2022-12-13T08:02:51.726Z,14.20
2022-12-13T08:03:53.473Z,10.80
2022-12-13T08:04:55.576Z,9.93
2022-12-13T08:06:02.881Z,8.73
2022-12-13T08:07:09.244Z,8.18
2022-12-13T08:08:11.740Z,13.40
2022-12-13T08:09:13.836Z,9.82
2022-12-13T08:10:15.663Z,11.98
2022-12-13T08:11:17.593Z,12.38
2022-12-13T08:12:22.803Z,9.02
2022-12-13T08:13:24.862Z,9.75
2022-12-13T08:14:26.932Z,12.75
2022-12-13T08:15:29.525Z,10.40
2022-12-13T08:16:31.588Z,10.95
2022-12-13T08:17:33.452Z,8.55
2022-12-13T08:18:35.651Z,9.80
2022-12-13T08:19:37.367Z,9.52
2022-12-13T08:20:39.105Z,7.75
2022-12-13T08:22:01.269Z,10.13
2022-12-13T08:23:03.783Z,9.35
2022-12-13T08:24:07.220Z,12.65
2022-12-13T08:25:10.813Z,13.02
2022-12-13T08:26:12.886Z,7.78
2022-12-13T08:27:14.610Z,9.02
2022-12-13T08:28:16.807Z,14.52
2022-12-13T08:29:23.450Z,12.00
2022-12-13T08:30:35.603Z,10.13
2022-12-13T08:31:37.390Z,10.68
2022-12-13T08:32:39.209Z,11.43
2022-12-13T08:33:41.323Z,15.02
2022-12-13T08:34:43.580Z,12.25
2022-12-13T08:35:46.211Z,9.70
2022-12-13T08:36:48.108Z,10.77
2022-12-13T08:37:49.879Z,9.93
2022-12-13T08:38:53.656Z,9.40
2022-12-13T08:39:55.379Z,11.38
2022-12-13T08:40:59.516Z,8.55
2022-12-13T08:42:15.796Z,8.98
2022-12-13T08:43:19.471Z,9.20
2022-12-13T08:44:26.790Z,10.50
2022-12-13T08:45:28.951Z,14.30
2022-12-13T08:46:31.093Z,12.85
2022-12-13T08:47:38.255Z,12.30
2022-12-13T08:48:44.407Z,10.88
2022-12-13T08:49:46.724Z,10.98
2022-12-13T08:50:48.824Z,13.85
2022-12-13T08:51:50.553Z,11.55
2022-12-13T08:52:52.877Z,7.43
2022-12-13T08:54:10.252Z,9.88
2022-12-13T08:55:14.874Z,10.85
2022-12-13T08:56:19.142Z,9.65
2022-12-13T08:57:21.157Z,13.38
2022-12-13T08:58:22.915Z,10.52
2022-12-13T08:59:26.223Z,10.75
2022-12-13T09:00:28.533Z,8.63
2022-12-13T09:01:38.095Z,11.48
2022-12-13T09:02:40.360Z,10.35
2022-12-13T09:03:42.126Z,8.38
2022-12-13T09:04:44.053Z,10.30
2022-12-13T09:05:46.009Z,11.00
2022-12-13T09:06:47.893Z,11.02
2022-12-13T09:07:49.799Z,10.07
2022-12-13T09:08:54.908Z,9.15
2022-12-13T09:09:57.030Z,8.23
2022-12-13T09:11:00.430Z,12.80
2022-12-13T09:12:02.159Z,10.55
2022-12-13T09:13:13.429Z,13.43
2022-12-13T09:14:34.525Z,10.65
2022-12-13T09:15:39.862Z,11.15
2022-12-13T09:16:51.128Z,12.55
2022-12-13T09:17:54.218Z,11.93
2022-12-13T09:18:56.282Z,10.80
2022-12-13T09:19:58.861Z,7.60
2022-12-13T09:21:10.767Z,10.52
2022-12-13T09:22:14.562Z,13.50
2022-12-13T09:23:23.440Z,9.90
2022-12-13T09:24:26.338Z,16.02
2022-12-13T09:25:28.048Z,12.77
2022-12-13T09:26:38.820Z,12.23
2022-12-13T09:27:40.587Z,16.75
2022-12-13T09:28:43.022Z,12.32
2022-12-13T09:29:45.019Z,10.40
2022-12-13T09:30:46.716Z,10.35
2022-12-13T09:31:53.075Z,11.57
2022-12-13T09:32:56.620Z,8.70
2022-12-13T09:33:58.525Z,10.45
2022-12-13T09:35:00.443Z,9.50
2022-12-13T09:36:06.088Z,12.70
2022-12-13T09:37:09.013Z,12.85
2022-12-13T09:38:10.932Z,12.95
2022-12-13T09:39:13.209Z,12.43
2022-12-13T09:40:25.780Z,10.02
2022-12-13T09:41:34.220Z,10.70
2022-12-13T09:42:48.150Z,12.52
2022-12-13T09:43:55.243Z,13.38
2022-12-13T09:45:05.401Z,12.15
2022-12-13T09:46:22.747Z,13.25
2022-12-13T09:47:47.453Z,11.25
2022-12-13T09:48:52.331Z,6.95
2022-12-13T09:49:54.372Z,8.48
2022-12-13T09:51:26.137Z,7.93
2022-12-13T09:52:21.899Z,10.20
2022-12-13T09:53:24.294Z,8.50
2022-12-13T09:54:36.492Z,7.40
2022-12-13T09:55:43.022Z,8.35
2022-12-13T09:56:51.283Z,8.73
2022-12-13T09:57:53.550Z,8.02
2022-12-13T09:58:56.782Z,9.25
2022-12-13T10:00:01.086Z,11.27
2022-12-13T10:01:06.350Z,10.18
2022-12-13T10:02:25.481Z,9.93
2022-12-13T10:03:27.598Z,11.00
2022-12-13T10:04:29.694Z,10.20
2022-12-13T10:05:40.406Z,10.98
2022-12-13T10:06:42.376Z,8.38
2022-12-13T10:07:44.661Z,12.27
2022-12-13T10:08:58.103Z,8.80
2022-12-13T10:10:01.578Z,7.38
2022-12-13T10:11:04.209Z,10.15
2022-12-13T10:12:06.714Z,14.95
2022-12-13T10:13:36.686Z,11.05
2022-12-13T10:14:42.822Z,9.23
2022-12-13T10:15:51.131Z,9.55
2022-12-13T10:16:58.002Z,8.02
2022-12-13T10:18:03.885Z,11.95
2022-12-13T10:19:40.416Z,8.48
2022-12-13T10:20:42.415Z,9.48
2022-12-13T10:21:47.814Z,11.02
2022-12-13T10:23:15.090Z,9.57
2022-12-13T10:24:36.372Z,13.80
2022-12-13T10:25:52.024Z,13.77
2022-12-13T10:26:56.589Z,8.60
2022-12-13T10:27:58.596Z,8.65
2022-12-13T10:29:07.505Z,8.50
2022-12-13T10:30:10.985Z,10.20
2022-12-13T10:31:20.490Z,12.40
2022-12-13T10:32:22.466Z,12.32
2022-12-13T10:33:31.903Z,8.88
2022-12-13T10:34:37.093Z,14.35
2022-12-13T10:35:41.445Z,10.65
2022-12-13T10:36:43.868Z,8.15
2022-12-13T10:37:45.575Z,8.98
2022-12-13T10:38:47.525Z,13.88
2022-12-13T10:39:49.632Z,10.90
2022-12-13T10:40:51.986Z,14.90
2022-12-13T10:42:04.360Z,11.60
2022-12-13T10:43:23.691Z,9.65
2022-12-13T10:44:26.018Z,8.10
2022-12-13T10:45:27.741Z,8.60
2022-12-13T10:46:31.322Z,11.15
2022-12-13T10:47:44.207Z,9.70
2022-12-13T10:48:51.965Z,8.85
2022-12-13T10:50:01.367Z,8.75
2022-12-13T10:51:05.558Z,8.77
2022-12-13T10:52:30.663Z,8.90
2022-12-13T10:53:43.852Z,10.00
2022-12-13T10:54:50.823Z,8.13
2022-12-13T10:55:55.912Z,6.72
2022-12-13T10:57:01.536Z,9.43
2022-12-13T10:58:09.655Z,10.82
2022-12-13T10:59:20.928Z,7.78
2022-12-13T11:01:42.008Z,6.97
2022-12-13T11:02:54.524Z,6.28
2022-12-13T11:04:25.387Z,6.90
2022-12-13T11:05:35.035Z,7.32
2022-12-13T11:06:45.725Z,8.02
2022-12-13T11:07:47.886Z,9.95
2022-12-13T11:08:49.587Z,8.30
2022-12-13T11:09:52.569Z,8.43
2022-12-13T11:11:03.734Z,7.50
2022-12-13T11:12:14.661Z,8.05
2022-12-13T11:13:29.396Z,12.93
2022-12-13T11:14:40.380Z,9.93
2022-12-13T11:15:45.595Z,9.98
2022-12-13T11:17:07.893Z,11.07
2022-12-13T11:18:20.664Z,7.55
2022-12-13T11:19:33.598Z,7.60
2022-12-13T11:20:46.108Z,7.43
2022-12-13T11:21:52.262Z,9.23
2022-12-13T11:23:22.859Z,10.25
2022-12-13T11:24:28.600Z,8.68
2022-12-13T11:25:41.589Z,9.88
2022-12-13T11:26:53.766Z,7.88
2022-12-13T11:28:25.698Z,7.53
2022-12-13T11:29:54.519Z,7.28
2022-12-13T11:31:05.575Z,10.25
2022-12-13T11:32:11.771Z,12.00
2022-12-13T11:33:48.179Z,8.02
2022-12-13T11:35:09.468Z,10.40
2022-12-13T11:36:35.121Z,9.23
2022-12-13T11:38:16.411Z,11.93
2022-12-13T11:39:42.191Z,11.93
2022-12-13T11:40:49.587Z,10.13
2022-12-13T11:42:01.360Z,7.72
2022-12-13T11:43:11.006Z,10.60
2022-12-13T11:44:45.923Z,14.35
2022-12-13T11:45:56.729Z,8.13
2022-12-13T11:47:00.744Z,10.20
2022-12-13T11:48:10.009Z,8.55
2022-12-13T11:49:41.874Z,10.95
2022-12-13T11:50:47.363Z,10.20
2022-12-13T11:52:04.237Z,11.20
2022-12-13T11:53:26.751Z,12.38
2022-12-13T11:54:41.671Z,9.10
2022-12-13T11:56:00.167Z,11.02
2022-12-13T11:57:07.883Z,9.80
2022-12-13T11:58:53.909Z,7.63
2022-12-13T12:00:01.994Z,11.18
2022-12-13T12:01:12.793Z,10.52
2022-12-13T12:02:21.449Z,11.48
2022-12-13T12:03:46.729Z,10.10
2022-12-13T12:05:00.107Z,8.80
2022-12-13T12:06:11.853Z,9.10
2022-12-13T12:08:47.473Z,5.80
2022-12-13T12:09:58.954Z,8.18
2022-12-13T12:12:27.867Z,8.25
2022-12-13T12:13:50.489Z,9.70
2022-12-13T12:15:15.843Z,14.73
2022-12-13T12:16:46.326Z,7.78
2022-12-13T12:17:49.062Z,7.45
2022-12-13T12:18:52.237Z,10.10
2022-12-13T12:19:56.970Z,9.07
2022-12-13T12:21:49.715Z,9.75
2022-12-13T12:23:11.448Z,6.10
2022-12-13T12:26:01.243Z,6.97
2022-12-13T12:27:06.122Z,5.93
2022-12-13T12:28:26.615Z,5.93
2022-12-13T12:29:53.441Z,10.65
2022-12-13T12:31:29.369Z,6.45
2022-12-13T12:32:54.051Z,7.60
2022-12-13T12:34:15.330Z,11.52
2022-12-13T12:35:29.157Z,11.73
2022-12-13T12:36:46.249Z,9.50
2022-12-13T12:38:22.882Z,7.55
2022-12-13T12:40:01.971Z,9.25
2022-12-13T12:41:17.328Z,9.20
2022-12-13T12:42:56.807Z,8.13
2022-12-13T12:44:09.004Z,6.13
2022-12-13T12:45:10.817Z,8.05
2022-12-13T12:47:01.336Z,10.02
2022-12-13T12:50:06.778Z,10.60
2022-12-13T12:51:21.349Z,7.57
2022-12-13T12:52:28.376Z,6.13
2022-12-13T12:53:44.671Z,6.68
2022-12-13T12:55:09.828Z,7.05
2022-12-13T12:56:35.478Z,8.40
2022-12-13T12:58:09.045Z,3.85
2022-12-13T12:59:27.253Z,4.65
2022-12-13T13:00:36.353Z,6.20
2022-12-13T13:02:15.375Z,4.47
2022-12-13T13:03:28.937Z,5.22
2022-12-13T13:04:43.025Z,6.07
2022-12-13T13:06:10.523Z,7.05
2022-12-13T13:07:31.938Z,8.20
2022-12-13T13:08:55.223Z,8.45
2022-12-13T13:09:57.729Z,6.05
2022-12-13T13:11:24.914Z,4.65
2022-12-13T13:12:29.307Z,7.45
2022-12-13T13:14:01.534Z,4.05
2022-12-13T13:16:33.381Z,6.07
2022-12-13T13:17:35.335Z,4.32
2022-12-13T13:18:51.553Z,7.13
2022-12-13T13:20:23.144Z,7.43
2022-12-13T13:22:32.383Z,6.22
2022-12-13T13:23:40.764Z,6.00
2022-12-13T13:24:57.881Z,3.42
2022-12-13T13:26:23.376Z,5.13
2022-12-13T13:27:41.549Z,8.02
2022-12-13T13:28:43.597Z,6.60
2022-12-13T13:29:45.864Z,5.13
2022-12-13T13:31:10.608Z,5.80
2022-12-13T13:32:12.514Z,6.35
2022-12-13T13:33:46.579Z,9.95
2022-12-13T13:34:50.394Z,8.10
2022-12-13T13:35:53.645Z,7.85
2022-12-13T13:36:57.084Z,8.73
2022-12-13T13:38:06.735Z,6.57
2022-12-13T13:39:35.063Z,7.45
2022-12-13T13:40:38.657Z,5.40
2022-12-13T13:42:03.181Z,5.97
2022-12-13T13:43:11.134Z,4.70
2022-12-13T13:44:45.503Z,6.32
2022-12-13T13:45:55.881Z,4.70
2022-12-13T13:47:20.734Z,6.03
2022-12-13T13:48:41.185Z,7.47
2022-12-13T13:50:12.966Z,8.25
2022-12-13T13:51:41.452Z,4.45
2022-12-13T13:52:54.180Z,7.07
2022-12-13T13:54:05.117Z,5.25
2022-12-13T13:55:25.944Z,11.18
2022-12-13T13:56:38.069Z,7.05
2022-12-13T13:58:21.584Z,8.52
2022-12-13T13:59:38.152Z,4.90
2022-12-13T14:01:08.859Z,9.20
2022-12-13T14:02:45.357Z,9.38
2022-12-13T14:04:11.418Z,10.75
2022-12-13T14:05:28.109Z,7.88
2022-12-13T14:07:01.036Z,6.60
2022-12-13T14:08:35.903Z,12.07
2022-12-13T14:09:56.182Z,6.32
2022-12-13T14:11:36.494Z,9.02
2022-12-13T14:13:15.247Z,7.63
2022-12-13T14:14:38.508Z,6.38
2022-12-13T14:16:05.363Z,6.57
2022-12-13T14:17:26.088Z,6.70
2022-12-13T14:19:01.360Z,5.97
2022-12-13T14:20:06.216Z,8.02
2022-12-13T14:21:26.395Z,10.65
2022-12-13T14:22:56.955Z,7.32
2022-12-13T14:24:39.723Z,4.15
2022-12-13T14:25:46.383Z,7.72
2022-12-13T14:27:10.018Z,7.60
2022-12-13T14:28:15.719Z,5.82
2022-12-13T14:29:24.834Z,8.10
2022-12-13T14:30:28.596Z,7.40
2022-12-13T14:31:41.889Z,7.28
2022-12-13T14:32:46.395Z,8.98
2022-12-13T14:33:48.544Z,6.65
2022-12-13T14:34:50.450Z,3.95
2022-12-13T14:36:00.521Z,5.95
2022-12-13T14:37:18.710Z,6.85
2022-12-13T14:38:29.137Z,6.18
2022-12-13T14:39:34.095Z,3.30
2022-12-13T14:40:47.179Z,8.82
2022-12-13T14:41:57.002Z,5.47
2022-12-13T14:42:59.988Z,4.85
2022-12-13T14:44:37.382Z,5.03
2022-12-13T14:45:39.437Z,4.60
2022-12-13T14:46:58.422Z,3.90
2022-12-13T14:48:04.104Z,5.88
2022-12-13T14:49:07.973Z,2.55
2022-12-13T14:50:15.013Z,5.88
2022-12-13T14:51:31.421Z,9.45
2022-12-13T14:52:39.591Z,3.58
2022-12-13T14:53:41.969Z,5.80
2022-12-13T14:54:59.353Z,3.55
2022-12-13T14:56:28.380Z,2.80
2022-12-13T14:57:33.404Z,5.47
2022-12-13T14:58:37.009Z,7.47
2022-12-13T14:59:50.260Z,3.88
2022-12-13T15:00:52.722Z,4.07
2022-12-13T15:02:02.560Z,5.68
2022-12-13T15:03:04.522Z,6.53